sensor_id;sensor_type;location;lat;lon;timestamp;pressure;altitude;pressure_sealevel;temperature;humidity
4570;BME280;2297;51.442;6.996;2022-10-03T00:02:33;101190.00;;;11.97;59.97
4570;BME280;2297;51.442;6.996;2022-10-03T00:05:17;101191.84;;;11.93;60.15
4570;BME280;2297;51.442;6.996;2022-10-03T00:08:02;101198.00;;;11.94;60.40
4570;BME280;2297;51.442;6.996;2022-10-03T00:10:37;101201.56;;;11.90;60.43
4570;BME280;2297;51.442;6.996;2022-10-03T00:13:12;101197.94;;;11.97;60.35
4570;BME280;2297;51.442;6.996;2022-10-03T00:16:06;101198.88;;;11.94;60.30
4570;BME280;2297;51.442;6.996;2022-10-03T00:18:44;101203.34;;;11.91;60.66
4570;BME280;2297;51.442;6.996;2022-10-03T00:21:26;101210.44;;;11.86;60.78
4570;BME280;2297;51.442;6.996;2022-10-03T00:24:05;101204.22;;;11.90;60.76
4570;BME280;2297;51.442;6.996;2022-10-03T00:26:43;101209.47;;;11.94;60.48
4570;BME280;2297;51.442;6.996;2022-10-03T00:29:30;101218.22;;;11.98;60.30
4570;BME280;2297;51.442;6.996;2022-10-03T00:32:12;101209.47;;;11.93;60.25
4570;BME280;2297;51.442;6.996;2022-10-03T00:34:56;101219.31;;;11.81;60.50
4570;BME280;2297;51.442;6.996;2022-10-03T00:37:30;101217.63;;;11.74;60.60
4570;BME280;2297;51.442;6.996;2022-10-03T00:40:31;101222.88;;;11.79;60.72
4570;BME280;2297;51.442;6.996;2022-10-03T00:46:25;101225.66;;;11.65;61.40
4570;BME280;2297;51.442;6.996;2022-10-03T00:49:22;101221.31;;;11.61;61.51
4570;BME280;2297;51.442;6.996;2022-10-03T00:52:05;101226.63;;;11.59;61.64
4570;BME280;2297;51.442;6.996;2022-10-03T00:54:45;101224.03;;;11.55;61.94
4570;BME280;2297;51.442;6.996;2022-10-03T00:57:27;101236.41;;;11.51;61.87
4570;BME280;2297;51.442;6.996;2022-10-03T01:00:15;101239.03;;;11.53;62.12
4570;BME280;2297;51.442;6.996;2022-10-03T01:02:50;101235.59;;;11.44;62.43
4570;BME280;2297;51.442;6.996;2022-10-03T01:05:30;101241.72;;;11.46;62.50
4570;BME280;2297;51.442;6.996;2022-10-03T01:08:19;101247.94;;;11.45;62.48
4570;BME280;2297;51.442;6.996;2022-10-03T01:10:56;101245.31;;;11.41;62.63
4570;BME280;2297;51.442;6.996;2022-10-03T01:13:33;101242.69;;;11.39;62.55
4570;BME280;2297;51.442;6.996;2022-10-03T01:16:11;101245.38;;;11.33;62.92
4570;BME280;2297;51.442;6.996;2022-10-03T01:18:48;101244.63;;;11.22;62.88
4570;BME280;2297;51.442;6.996;2022-10-03T01:21:30;101248.09;;;11.28;63.00
4570;BME280;2297;51.442;6.996;2022-10-03T01:27:03;101242.72;;;11.36;62.62
4570;BME280;2297;51.442;6.996;2022-10-03T01:29:40;101234.75;;;11.41;62.68
4570;BME280;2297;51.442;6.996;2022-10-03T01:32:31;101237.31;;;11.48;62.20
4570;BME280;2297;51.442;6.996;2022-10-03T01:35:09;101242.59;;;11.48;62.28
4570;BME280;2297;51.442;6.996;2022-10-03T01:37:44;101240.91;;;11.41;62.78
4570;BME280;2297;51.442;6.996;2022-10-03T01:40:23;101242.75;;;11.33;62.55
4570;BME280;2297;51.442;6.996;2022-10-03T01:43:00;101233.97;;;11.31;62.97
4570;BME280;2297;51.442;6.996;2022-10-03T01:45:39;101239.22;;;11.34;62.76
4570;BME280;2297;51.442;6.996;2022-10-03T01:48:15;101240.97;;;11.35;62.64
4570;BME280;2297;51.442;6.996;2022-10-03T01:50:50;101242.69;;;11.39;62.71
4570;BME280;2297;51.442;6.996;2022-10-03T01:53:25;101246.19;;;11.41;62.53
4570;BME280;2297;51.442;6.996;2022-10-03T01:56:03;101248.03;;;11.36;62.55
4570;BME280;2297;51.442;6.996;2022-10-03T01:58:43;101254.19;;;11.32;62.96
4570;BME280;2297;51.442;6.996;2022-10-03T02:01:20;101259.59;;;11.20;62.94
4570;BME280;2297;51.442;6.996;2022-10-03T02:03:54;101265.78;;;11.19;63.37
4570;BME280;2297;51.442;6.996;2022-10-03T02:06:26;101266.72;;;11.13;63.26
4570;BME280;2297;51.442;6.996;2022-10-03T02:09:02;101268.50;;;11.12;63.57
4570;BME280;2297;51.442;6.996;2022-10-03T02:11:33;101275.50;;;11.18;63.57
4570;BME280;2297;51.442;6.996;2022-10-03T02:14:14;101276.34;;;11.22;63.33
4570;BME280;2297;51.442;6.996;2022-10-03T02:16:54;101274.63;;;11.18;63.55
4570;BME280;2297;51.442;6.996;2022-10-03T02:19:26;101281.69;;;11.09;63.39
4570;BME280;2297;51.442;6.996;2022-10-03T02:21:56;101276.38;;;11.16;63.44
4570;BME280;2297;51.442;6.996;2022-10-03T02:24:40;101278.19;;;11.07;63.83
4570;BME280;2297;51.442;6.996;2022-10-03T02:27:26;101286.13;;;11.07;63.52
4570;BME280;2297;51.442;6.996;2022-10-03T02:30:15;101277.31;;;11.11;63.52
4570;BME280;2297;51.442;6.996;2022-10-03T02:33:23;101285.19;;;11.14;63.57
4570;BME280;2297;51.442;6.996;2022-10-03T02:36:19;101282.53;;;11.19;63.30
4570;BME280;2297;51.442;6.996;2022-10-03T02:39:02;101291.34;;;11.18;63.13
4570;BME280;2297;51.442;6.996;2022-10-03T02:41:56;101287.84;;;11.16;63.32
4570;BME280;2297;51.442;6.996;2022-10-03T02:44:49;101286.06;;;11.20;63.00
4570;BME280;2297;51.442;6.996;2022-10-03T02:47:59;101290.50;;;11.14;63.20
4570;BME280;2297;51.442;6.996;2022-10-03T02:53:47;101283.50;;;11.04;63.67
4570;BME280;2297;51.442;6.996;2022-10-03T02:56:55;101287.88;;;11.08;63.69
4570;BME280;2297;51.442;6.996;2022-10-03T02:59:47;101294.16;;;10.95;63.79
4570;BME280;2297;51.442;6.996;2022-10-03T03:09:25;101297.72;;;10.88;64.57
4570;BME280;2297;51.442;6.996;2022-10-03T03:12:28;101304.78;;;10.87;64.33
4570;BME280;2297;51.442;6.996;2022-10-03T03:15:27;101297.66;;;10.94;64.22
4570;BME280;2297;51.442;6.996;2022-10-03T03:18:09;101304.72;;;10.92;63.96
4570;BME280;2297;51.442;6.996;2022-10-03T03:20:53;101301.19;;;10.93;64.11
4570;BME280;2297;51.442;6.996;2022-10-03T03:23:36;101301.19;;;10.93;64.10
4570;BME280;2297;51.442;6.996;2022-10-03T03:26:45;101301.22;;;10.90;63.77
4570;BME280;2297;51.442;6.996;2022-10-03T03:29:28;101301.22;;;10.87;64.07
4570;BME280;2297;51.442;6.996;2022-10-03T03:32:02;101311.84;;;10.82;64.48
4570;BME280;2297;51.442;6.996;2022-10-03T03:34:43;101306.53;;;10.84;64.28
4570;BME280;2297;51.442;6.996;2022-10-03T03:37:20;101301.25;;;10.84;64.14
4570;BME280;2297;51.442;6.996;2022-10-03T03:40:12;101305.69;;;10.78;64.65
4570;BME280;2297;51.442;6.996;2022-10-03T03:42:57;101303.03;;;10.78;64.33
4570;BME280;2297;51.442;6.996;2022-10-03T03:45:36;101303.00;;;10.81;64.53
4570;BME280;2297;51.442;6.996;2022-10-03T03:48:40;101301.25;;;10.84;64.47
4570;BME280;2297;51.442;6.996;2022-10-03T03:51:22;101308.31;;;10.85;64.21
4570;BME280;2297;51.442;6.996;2022-10-03T03:57:23;101313.56;;;10.88;64.21
4570;BME280;2297;51.442;6.996;2022-10-03T04:00:05;101308.31;;;10.81;64.27
4570;BME280;2297;51.442;6.996;2022-10-03T04:02:44;101312.75;;;10.75;64.65
4570;BME280;2297;51.442;6.996;2022-10-03T04:05:23;101308.34;;;10.78;64.33
4570;BME280;2297;51.442;6.996;2022-10-03T04:08:12;101308.34;;;10.78;64.34
4570;BME280;2297;51.442;6.996;2022-10-03T04:10:51;101315.41;;;10.76;64.72
4570;BME280;2297;51.442;6.996;2022-10-03T04:13:42;101311.88;;;10.76;64.67
4570;BME280;2297;51.442;6.996;2022-10-03T04:16:27;101320.72;;;10.70;64.84
4570;BME280;2297;51.442;6.996;2022-10-03T04:19:22;101312.81;;;10.69;64.79
4570;BME280;2297;51.442;6.996;2022-10-03T04:22:11;101323.31;;;10.73;64.83
4570;BME280;2297;51.442;6.996;2022-10-03T04:25:03;101317.16;;;10.74;64.60
4570;BME280;2297;51.442;6.996;2022-10-03T04:27:52;101329.50;;;10.72;65.30
4570;BME280;2297;51.442;6.996;2022-10-03T04:30:28;101325.97;;;10.76;65.01
4570;BME280;2297;51.442;6.996;2022-10-03T04:33:11;101330.34;;;10.79;64.69
4570;BME280;2297;51.442;6.996;2022-10-03T04:39:21;101326.81;;;10.80;65.01
4570;BME280;2297;51.442;6.996;2022-10-03T04:42:00;101320.69;;;10.76;64.86
4570;BME280;2297;51.442;6.996;2022-10-03T04:44:46;101329.53;;;10.66;65.29
4570;BME280;2297;51.442;6.996;2022-10-03T04:47:19;101326.03;;;10.61;65.14
4570;BME280;2297;51.442;6.996;2022-10-03T04:49:55;101326.03;;;10.64;65.28
4570;BME280;2297;51.442;6.996;2022-10-03T04:52:27;101318.97;;;10.63;65.13
4570;BME280;2297;51.442;6.996;2022-10-03T04:55:04;101319.88;;;10.57;65.40
4570;BME280;2297;51.442;6.996;2022-10-03T04:57:36;101325.22;;;10.46;65.70
4570;BME280;2297;51.442;6.996;2022-10-03T05:00:20;101327.81;;;10.59;65.65
4570;BME280;2297;51.442;6.996;2022-10-03T05:02:53;101326.91;;;10.63;65.51
4570;BME280;2297;51.442;6.996;2022-10-03T05:05:33;101321.69;;;10.55;65.67
4570;BME280;2297;51.442;6.996;2022-10-03T05:08:15;101331.34;;;10.55;65.83
4570;BME280;2297;51.442;6.996;2022-10-03T05:10:59;101330.41;;;10.67;65.35
4570;BME280;2297;51.442;6.996;2022-10-03T05:13:38;101326.91;;;10.64;65.54
4570;BME280;2297;51.442;6.996;2022-10-03T05:16:17;101326.88;;;10.71;65.50
4570;BME280;2297;51.442;6.996;2022-10-03T05:18:51;101324.22;;;10.72;65.32
4570;BME280;2297;51.442;6.996;2022-10-03T05:21:29;101327.81;;;10.62;65.81
4570;BME280;2297;51.442;6.996;2022-10-03T05:24:01;101324.31;;;10.57;65.71
4570;BME280;2297;51.442;6.996;2022-10-03T05:26:39;101326.09;;;10.45;66.10
4570;BME280;2297;51.442;6.996;2022-10-03T05:29:42;101330.47;;;10.57;65.80
4570;BME280;2297;51.442;6.996;2022-10-03T05:32:20;101338.38;;;10.62;66.07
4570;BME280;2297;51.442;6.996;2022-10-03T05:35:03;101343.75;;;10.43;66.53
4570;BME280;2297;51.442;6.996;2022-10-03T05:40:36;101345.44;;;10.55;65.79
4570;BME280;2297;51.442;6.996;2022-10-03T05:43:22;101341.06;;;10.53;66.23
4570;BME280;2297;51.442;6.996;2022-10-03T05:45:58;101350.75;;;10.47;66.35
4570;BME280;2297;51.442;6.996;2022-10-03T05:48:37;101353.41;;;10.43;66.19
4570;BME280;2297;51.442;6.996;2022-10-03T05:51:28;101350.72;;;10.57;65.80
4570;BME280;2297;51.442;6.996;2022-10-03T05:54:27;101354.22;;;10.63;65.79
4570;BME280;2297;51.442;6.996;2022-10-03T05:57:17;101367.34;;;10.77;65.64
4570;BME280;2297;51.442;6.996;2022-10-03T06:00:03;101371.72;;;10.85;65.51
4570;BME280;2297;51.442;6.996;2022-10-03T06:02:48;101374.38;;;10.81;65.23
4570;BME280;2297;51.442;6.996;2022-10-03T06:05:29;101369.97;;;10.84;65.50
4570;BME280;2297;51.442;6.996;2022-10-03T06:08:13;101377.00;;;10.85;65.25
4570;BME280;2297;51.442;6.996;2022-10-03T06:10:48;101382.31;;;10.78;65.28
4570;BME280;2297;51.442;6.996;2022-10-03T06:13:29;101377.97;;;10.67;65.56
4570;BME280;2297;51.442;6.996;2022-10-03T06:16:06;101386.78;;;10.69;65.93
4570;BME280;2297;51.442;6.996;2022-10-03T06:22:20;101385.78;;;10.87;65.37
4570;BME280;2297;51.442;6.996;2022-10-03T06:25:15;101377.00;;;10.85;65.22
4570;BME280;2297;51.442;6.996;2022-10-03T06:34:32;101378.81;;;10.73;65.98
4570;BME280;2297;51.442;6.996;2022-10-03T06:43:29;101378.78;;;10.82;65.97
4570;BME280;2297;51.442;6.996;2022-10-03T06:46:16;101378.88;;;10.61;66.50
4570;BME280;2297;51.442;6.996;2022-10-03T06:49:18;101386.78;;;10.62;66.65
4570;BME280;2297;51.442;6.996;2022-10-03T07:01:24;101404.28;;;10.91;66.10
4570;BME280;2297;51.442;6.996;2022-10-03T07:04:07;101401.63;;;10.93;66.19
4570;BME280;2297;51.442;6.996;2022-10-03T07:09:45;101404.97;;;11.29;65.12
4570;BME280;2297;51.442;6.996;2022-10-03T07:12:46;101405.78;;;11.42;64.54
4570;BME280;2297;51.442;6.996;2022-10-03T07:15:46;101411.03;;;11.50;64.11
4570;BME280;2297;51.442;6.996;2022-10-03T07:27:40;101411.03;;;11.48;64.58
4570;BME280;2297;51.442;6.996;2022-10-03T07:30:14;101412.81;;;11.40;64.96
4570;BME280;2297;51.442;6.996;2022-10-03T07:36:33;101423.34;;;11.52;64.76
4570;BME280;2297;51.442;6.996;2022-10-03T07:39:58;101426.00;;;11.47;64.85
4570;BME280;2297;51.442;6.996;2022-10-03T07:42:52;101429.50;;;11.53;64.61
4570;BME280;2297;51.442;6.996;2022-10-03T07:45:39;101427.66;;;11.64;64.52
4570;BME280;2297;51.442;6.996;2022-10-03T07:48:47;101434.66;;;11.71;64.07
4570;BME280;2297;51.442;6.996;2022-10-03T07:51:27;101434.69;;;11.65;64.39
4570;BME280;2297;51.442;6.996;2022-10-03T07:54:30;101440.06;;;11.56;64.53
4570;BME280;2297;51.442;6.996;2022-10-03T07:57:16;101446.25;;;11.56;64.52
4570;BME280;2297;51.442;6.996;2022-10-03T08:05:53;101459.28;;;11.83;64.33
4570;BME280;2297;51.442;6.996;2022-10-03T08:08:50;101457.47;;;11.85;64.14
4570;BME280;2297;51.442;6.996;2022-10-03T08:11:32;101451.34;;;11.79;64.26
4570;BME280;2297;51.442;6.996;2022-10-03T08:14:22;101462.78;;;11.85;64.18
4570;BME280;2297;51.442;6.996;2022-10-03T08:20:19;101459.22;;;11.92;64.31
4570;BME280;2297;51.442;6.996;2022-10-03T08:23:02;101461.00;;;11.87;64.25
4570;BME280;2297;51.442;6.996;2022-10-03T08:25:46;101464.44;;;12.01;63.99
4570;BME280;2297;51.442;6.996;2022-10-03T08:28:38;101464.28;;;12.15;63.53
4570;BME280;2297;51.442;6.996;2022-10-03T08:31:37;101465.94;;;12.30;63.31
4570;BME280;2297;51.442;6.996;2022-10-03T08:34:34;101465.16;;;12.17;63.72
4570;BME280;2297;51.442;6.996;2022-10-03T08:37:39;101468.59;;;12.32;63.32
4570;BME280;2297;51.442;6.996;2022-10-03T08:49:41;101472.84;;;12.46;62.64
4570;BME280;2297;51.442;6.996;2022-10-03T08:52:27;101475.47;;;12.48;63.12
4570;BME280;2297;51.442;6.996;2022-10-03T08:55:28;101472.88;;;12.42;63.22
4570;BME280;2297;51.442;6.996;2022-10-03T09:01:14;101473.38;;;12.79;61.81
4570;BME280;2297;51.442;6.996;2022-10-03T09:04:26;101468.81;;;12.91;61.75
4570;BME280;2297;51.442;6.996;2022-10-03T09:07:34;101461.59;;;13.02;61.33
4570;BME280;2297;51.442;6.996;2022-10-03T09:19:12;101460.94;;;13.52;59.55
4570;BME280;2297;51.442;6.996;2022-10-03T09:22:14;101458.81;;;13.75;59.21
4570;BME280;2297;51.442;6.996;2022-10-03T09:25:24;101454.84;;;14.01;58.43
4570;BME280;2297;51.442;6.996;2022-10-03T09:31:17;101467.31;;;13.97;59.07
4570;BME280;2297;51.442;6.996;2022-10-03T09:37:22;101469.84;;;14.04;58.73
4570;BME280;2297;51.442;6.996;2022-10-03T09:43:36;101454.66;;;14.13;57.42
4570;BME280;2297;51.442;6.996;2022-10-03T09:46:35;101449.34;;;14.13;56.38
4570;BME280;2297;51.442;6.996;2022-10-03T09:49:27;101454.34;;;14.32;55.76
4570;BME280;2297;51.442;6.996;2022-10-03T09:52:12;101450.59;;;14.42;55.53
4570;BME280;2297;51.442;6.996;2022-10-03T09:55:06;101452.97;;;14.58;55.23
4570;BME280;2297;51.442;6.996;2022-10-03T09:58:11;101445.59;;;14.72;55.34
4570;BME280;2297;51.442;6.996;2022-10-03T10:01:07;101439.03;;;14.89;55.10
4570;BME280;2297;51.442;6.996;2022-10-03T10:10:01;101436.78;;;15.12;53.19
4570;BME280;2297;51.442;6.996;2022-10-03T10:15:54;101430.28;;;15.26;51.52
4570;BME280;2297;51.442;6.996;2022-10-03T10:18:50;101432.47;;;15.47;50.93
4570;BME280;2297;51.442;6.996;2022-10-03T10:21:58;101435.06;;;15.49;51.04
4570;BME280;2297;51.442;6.996;2022-10-03T10:27:53;101420.72;;;15.91;50.45
4570;BME280;2297;51.442;6.996;2022-10-03T10:34:14;101429.03;;;16.15;48.99
4570;BME280;2297;51.442;6.996;2022-10-03T10:43:29;101430.78;;;16.16;48.32
4570;BME280;2297;51.442;6.996;2022-10-03T10:46:22;101432.44;;;16.20;47.54
4570;BME280;2297;51.442;6.996;2022-10-03T10:52:24;101426.72;;;16.35;46.38
4570;BME280;2297;51.442;6.996;2022-10-03T11:01:45;101421.88;;;16.17;46.94
4570;BME280;2297;51.442;6.996;2022-10-03T11:04:49;101421.31;;;16.04;47.05
4570;BME280;2297;51.442;6.996;2022-10-03T11:08:01;101421.22;;;16.07;46.20
4570;BME280;2297;51.442;6.996;2022-10-03T11:10:54;101414.72;;;16.50;45.73
4570;BME280;2297;51.442;6.996;2022-10-03T11:13:51;101416.78;;;16.72;45.36
4570;BME280;2297;51.442;6.996;2022-10-03T11:20:16;101421.38;;;16.35;45.27
4570;BME280;2297;51.442;6.996;2022-10-03T11:29:35;101418.16;;;16.55;45.49
4570;BME280;2297;51.442;6.996;2022-10-03T11:32:43;101409.94;;;16.63;43.92
4570;BME280;2297;51.442;6.996;2022-10-03T11:36:09;101407.78;;;17.06;43.67
4570;BME280;2297;51.442;6.996;2022-10-03T11:38:49;101404.50;;;16.98;43.30
4570;BME280;2297;51.442;6.996;2022-10-03T11:41:28;101404.78;;;17.17;43.26
4570;BME280;2297;51.442;6.996;2022-10-03T11:44:14;101403.13;;;17.12;43.51
4570;BME280;2297;51.442;6.996;2022-10-03T11:46:50;101400.88;;;17.00;43.35
4570;BME280;2297;51.442;6.996;2022-10-03T11:49:43;101402.13;;;17.17;42.71
4570;BME280;2297;51.442;6.996;2022-10-03T11:52:26;101400.72;;;17.33;42.06
4570;BME280;2297;51.442;6.996;2022-10-03T11:55:04;101400.31;;;17.45;41.92
4570;BME280;2297;51.442;6.996;2022-10-03T11:57:35;101401.28;;;17.43;42.02
4570;BME280;2297;51.442;6.996;2022-10-03T12:00:07;101398.88;;;17.35;41.93
4570;BME280;2297;51.442;6.996;2022-10-03T12:02:59;101400.44;;;17.42;41.21
4570;BME280;2297;51.442;6.996;2022-10-03T12:05:43;101396.81;;;17.43;41.12
4570;BME280;2297;51.442;6.996;2022-10-03T12:08:21;101398.38;;;16.94;41.76
4570;BME280;2297;51.442;6.996;2022-10-03T12:11:15;101389.97;;;17.08;41.99
4570;BME280;2297;51.442;6.996;2022-10-03T12:13:44;101393.34;;;17.13;42.39
4570;BME280;2297;51.442;6.996;2022-10-03T12:16:20;101394.22;;;17.13;42.25
4570;BME280;2297;51.442;6.996;2022-10-03T12:18:56;101390.72;;;17.11;42.74
4570;BME280;2297;51.442;6.996;2022-10-03T12:21:34;101394.22;;;17.13;42.62
4570;BME280;2297;51.442;6.996;2022-10-03T12:24:16;101393.25;;;16.86;42.56
4570;BME280;2297;51.442;6.996;2022-10-03T12:26:52;101389.78;;;17.12;41.66
4570;BME280;2297;51.442;6.996;2022-10-03T12:29:24;101392.78;;;17.30;41.60
4570;BME280;2297;51.442;6.996;2022-10-03T12:32:04;101387.69;;;17.51;41.91
4570;BME280;2297;51.442;6.996;2022-10-03T12:34:38;101388.75;;;17.73;41.57
4570;BME280;2297;51.442;6.996;2022-10-03T12:37:34;101378.19;;;17.70;40.41
4570;BME280;2297;51.442;6.996;2022-10-03T12:40:13;101379.25;;;17.90;39.60
4570;BME280;2297;51.442;6.996;2022-10-03T12:42:47;101375.59;;;17.94;40.09
4570;BME280;2297;51.442;6.996;2022-10-03T12:45:23;101379.56;;;17.82;40.20
4570;BME280;2297;51.442;6.996;2022-10-03T12:48:04;101385.34;;;17.68;40.03
4570;BME280;2297;51.442;6.996;2022-10-03T12:50:45;101382.38;;;17.77;40.74
4570;BME280;2297;51.442;6.996;2022-10-03T12:53:31;101387.63;;;17.52;39.61
4570;BME280;2297;51.442;6.996;2022-10-03T12:56:13;101379.38;;;17.87;39.09
4570;BME280;2297;51.442;6.996;2022-10-03T12:58:51;101379.44;;;18.10;39.35
4570;BME280;2297;51.442;6.996;2022-10-03T13:01:27;101381.50;;;18.27;39.42
4570;BME280;2297;51.442;6.996;2022-10-03T13:03:58;101380.47;;;18.57;39.12
4570;BME280;2297;51.442;6.996;2022-10-03T13:06:49;101381.03;;;18.89;37.85
4570;BME280;2297;51.442;6.996;2022-10-03T13:09:24;101376.22;;;18.97;36.72
4570;BME280;2297;51.442;6.996;2022-10-03T13:12:02;101376.69;;;19.08;37.15
4570;BME280;2297;51.442;6.996;2022-10-03T13:14:44;101382.66;;;19.39;36.95
4570;BME280;2297;51.442;6.996;2022-10-03T13:17:37;101373.25;;;19.28;35.72
4570;BME280;2297;51.442;6.996;2022-10-03T13:20:16;101371.38;;;19.31;35.33
4570;BME280;2297;51.442;6.996;2022-10-03T13:22:51;101365.06;;;19.32;35.57
4570;BME280;2297;51.442;6.996;2022-10-03T13:25:34;101368.63;;;19.32;35.42
4570;BME280;2297;51.442;6.996;2022-10-03T13:28:11;101364.88;;;19.14;35.41
4570;BME280;2297;51.442;6.996;2022-10-03T13:30:45;101368.91;;;19.02;36.59
4570;BME280;2297;51.442;6.996;2022-10-03T13:33:16;101372.44;;;18.81;37.13
4570;BME280;2297;51.442;6.996;2022-10-03T13:35:46;101366.38;;;18.52;37.72
4570;BME280;2297;51.442;6.996;2022-10-03T13:38:43;101363.44;;;18.34;37.77
4570;BME280;2297;51.442;6.996;2022-10-03T13:41:23;101360.94;;;18.04;38.73
4570;BME280;2297;51.442;6.996;2022-10-03T13:43:57;101362.16;;;18.21;38.29
4570;BME280;2297;51.442;6.996;2022-10-03T13:46:30;101366.19;;;18.33;38.41
4570;BME280;2297;51.442;6.996;2022-10-03T13:49:01;101358.31;;;18.53;38.35
4570;BME280;2297;51.442;6.996;2022-10-03T13:51:54;101353.66;;;19.04;37.90
4570;BME280;2297;51.442;6.996;2022-10-03T13:54:42;101348.56;;;19.42;37.38
4570;BME280;2297;51.442;6.996;2022-10-03T13:57:15;101337.91;;;19.19;37.93
4570;BME280;2297;51.442;6.996;2022-10-03T13:59:53;101350.97;;;19.28;37.51
4570;BME280;2297;51.442;6.996;2022-10-03T14:02:38;101340.81;;;19.57;37.11
4570;BME280;2297;51.442;6.996;2022-10-03T14:05:33;101335.47;;;19.98;35.84
4570;BME280;2297;51.442;6.996;2022-10-03T14:08:09;101341.09;;;20.13;34.49
4570;BME280;2297;51.442;6.996;2022-10-03T14:10:57;101338.22;;;19.97;33.90
4570;BME280;2297;51.442;6.996;2022-10-03T14:13:38;101334.66;;;20.17;34.04
4570;BME280;2297;51.442;6.996;2022-10-03T14:16:15;101333.81;;;20.35;34.06
4570;BME280;2297;51.442;6.996;2022-10-03T14:18:51;101332.28;;;20.69;33.60
4570;BME280;2297;51.442;6.996;2022-10-03T14:21:32;101331.81;;;20.59;34.35
4570;BME280;2297;51.442;6.996;2022-10-03T14:24:08;101334.13;;;20.29;34.29
4570;BME280;2297;51.442;6.996;2022-10-03T14:26:43;101331.53;;;19.86;34.85
4570;BME280;2297;51.442;6.996;2022-10-03T14:29:19;101329.00;;;19.40;36.06
4570;BME280;2297;51.442;6.996;2022-10-03T14:31:53;101330.97;;;19.13;36.32
4570;BME280;2297;51.442;6.996;2022-10-03T14:34:26;101329.03;;;18.96;36.90
4570;BME280;2297;51.442;6.996;2022-10-03T14:37:05;101330.53;;;18.79;37.20
4570;BME280;2297;51.442;6.996;2022-10-03T14:39:38;101330.75;;;18.75;38.23
4570;BME280;2297;51.442;6.996;2022-10-03T14:42:29;101320.69;;;18.58;38.20
4570;BME280;2297;51.442;6.996;2022-10-03T14:44:59;101320.06;;;18.51;38.04
4570;BME280;2297;51.442;6.996;2022-10-03T14:47:32;101315.44;;;18.55;38.12
4570;BME280;2297;51.442;6.996;2022-10-03T14:50:00;101315.09;;;18.40;38.38
4570;BME280;2297;51.442;6.996;2022-10-03T14:52:33;101320.22;;;18.47;38.64
4570;BME280;2297;51.442;6.996;2022-10-03T14:55:07;101304.31;;;18.43;38.39
4570;BME280;2297;51.442;6.996;2022-10-03T14:57:41;101309.06;;;18.35;38.40
4570;BME280;2297;51.442;6.996;2022-10-03T15:00:22;101302.22;;;18.26;38.21
4570;BME280;2297;51.442;6.996;2022-10-03T15:02:50;101310.53;;;18.19;38.57
4570;BME280;2297;51.442;6.996;2022-10-03T15:05:21;101301.47;;;18.23;38.73
4570;BME280;2297;51.442;6.996;2022-10-03T15:07:50;101304.84;;;18.28;38.84
4570;BME280;2297;51.442;6.996;2022-10-03T15:10:20;101311.13;;;18.27;39.36
4570;BME280;2297;51.442;6.996;2022-10-03T15:12:52;101312.94;;;18.26;39.60
4570;BME280;2297;51.442;6.996;2022-10-03T15:15:24;101306.09;;;18.19;39.73
4570;BME280;2297;51.442;6.996;2022-10-03T15:17:53;101305.44;;;18.12;39.21
4570;BME280;2297;51.442;6.996;2022-10-03T15:20:24;101308.91;;;18.15;39.77
4570;BME280;2297;51.442;6.996;2022-10-03T15:22:58;101301.88;;;18.12;39.42
4570;BME280;2297;51.442;6.996;2022-10-03T15:25:27;101298.34;;;18.11;39.83
4570;BME280;2297;51.442;6.996;2022-10-03T15:27:56;101291.38;;;18.07;40.34
4570;BME280;2297;51.442;6.996;2022-10-03T15:30:26;101286.13;;;18.04;40.69
4570;BME280;2297;51.442;6.996;2022-10-03T15:33:03;101293.34;;;18.02;40.73
4570;BME280;2297;51.442;6.996;2022-10-03T15:35:34;101276.94;;;17.88;40.84
4570;BME280;2297;51.442;6.996;2022-10-03T15:38:10;101279.03;;;17.78;41.04
4570;BME280;2297;51.442;6.996;2022-10-03T15:40:41;101285.41;;;17.75;41.74
4570;BME280;2297;51.442;6.996;2022-10-03T15:43:26;101272.97;;;17.74;41.94
4570;BME280;2297;51.442;6.996;2022-10-03T15:45:56;101275.84;;;17.68;41.38
4570;BME280;2297;51.442;6.996;2022-10-03T15:48:25;101271.28;;;17.72;41.21
4570;BME280;2297;51.442;6.996;2022-10-03T15:50:56;101273.06;;;17.71;40.74
4570;BME280;2297;51.442;6.996;2022-10-03T15:53:26;101265.88;;;17.73;40.69
4570;BME280;2297;51.442;6.996;2022-10-03T15:56:00;101268.59;;;17.72;40.40
4570;BME280;2297;51.442;6.996;2022-10-03T15:58:32;101268.72;;;17.69;40.94
4570;BME280;2297;51.442;6.996;2022-10-03T16:01:04;101264.53;;;17.60;40.24
4570;BME280;2297;51.442;6.996;2022-10-03T16:03:39;101264.84;;;17.51;40.22
4570;BME280;2297;51.442;6.996;2022-10-03T16:06:10;101265.66;;;17.53;40.17
4570;BME280;2297;51.442;6.996;2022-10-03T16:08:51;101260.06;;;17.60;40.74
4570;BME280;2297;51.442;6.996;2022-10-03T16:11:22;101263.63;;;17.61;41.27
4570;BME280;2297;51.442;6.996;2022-10-03T16:14:01;101259.41;;;17.54;40.52
4570;BME280;2297;51.442;6.996;2022-10-03T16:16:36;101256.59;;;17.58;40.83
4570;BME280;2297;51.442;6.996;2022-10-03T16:19:21;101260.94;;;17.61;40.58
4570;BME280;2297;51.442;6.996;2022-10-03T16:21:54;101250.59;;;17.52;41.66
4570;BME280;2297;51.442;6.996;2022-10-03T16:24:31;101254.56;;;17.40;41.20
4570;BME280;2297;51.442;6.996;2022-10-03T16:27:06;101262.97;;;17.27;41.55
4570;BME280;2297;51.442;6.996;2022-10-03T16:29:38;101257.94;;;17.18;42.05
4570;BME280;2297;51.442;6.996;2022-10-03T16:32:13;101253.63;;;17.14;42.73
4570;BME280;2297;51.442;6.996;2022-10-03T16:34:43;101260.78;;;17.13;43.42
4570;BME280;2297;51.442;6.996;2022-10-03T16:37:16;101260.84;;;17.12;43.68
4570;BME280;2297;51.442;6.996;2022-10-03T16:39:52;101257.50;;;17.05;43.56
4570;BME280;2297;51.442;6.996;2022-10-03T16:42:22;101248.84;;;16.97;44.41
4570;BME280;2297;51.442;6.996;2022-10-03T16:44:51;101248.28;;;16.87;45.04
4570;BME280;2297;51.442;6.996;2022-10-03T16:47:28;101248.72;;;16.73;45.99
4570;BME280;2297;51.442;6.996;2022-10-03T16:49:57;101260.50;;;16.66;45.72
4570;BME280;2297;51.442;6.996;2022-10-03T16:52:46;101254.81;;;16.49;45.82
4570;BME280;2297;51.442;6.996;2022-10-03T16:55:17;101249.50;;;16.49;45.66
4570;BME280;2297;51.442;6.996;2022-10-03T16:57:48;101249.50;;;16.49;46.91
4570;BME280;2297;51.442;6.996;2022-10-03T17:00:20;101242.56;;;16.43;47.40
4570;BME280;2297;51.442;6.996;2022-10-03T17:02:48;101243.59;;;16.37;46.62